createdAt,value
2023-05-03T00:02:28.608Z,54.54
2023-05-03T00:04:56.106Z,56.38
2023-05-03T00:07:23.215Z,55.03
2023-05-03T00:09:50.365Z,54.47
2023-05-03T00:12:17.396Z,55.11
2023-05-03T00:14:45.897Z,54.09
2023-05-03T00:17:13.307Z,54.24
2023-05-03T00:19:40.733Z,54.17
2023-05-03T00:22:08.186Z,54.87
2023-05-03T00:24:35.623Z,57.71
2023-05-03T00:27:04.349Z,59.54
2023-05-03T00:29:31.310Z,58.11
2023-05-03T00:31:58.295Z,61.74
2023-05-03T00:34:25.567Z,61.52
2023-05-03T00:36:52.888Z,61.16
2023-05-03T00:39:19.744Z,59.32
2023-05-03T00:41:46.659Z,60.09
2023-05-03T00:44:13.853Z,59.96
2023-05-03T00:46:45.475Z,61.34
2023-05-03T00:49:12.837Z,60.95
2023-05-03T00:51:42.157Z,62.38
2023-05-03T00:54:11.005Z,62.63
2023-05-03T00:56:50.444Z,63.83
2023-05-03T00:59:19.066Z,66.58
2023-05-03T01:01:53.487Z,67.13
2023-05-03T01:04:22.154Z,67.90
2023-05-03T01:07:18.303Z,66.83
2023-05-03T01:10:05.015Z,66.25
2023-05-03T01:12:44.357Z,64.63
2023-05-03T01:15:26.307Z,68.13
2023-05-03T01:18:07.983Z,68.69
2023-05-03T01:20:38.587Z,66.92
2023-05-03T01:23:18.980Z,63.49
2023-05-03T01:25:45.887Z,64.37
2023-05-03T01:28:12.860Z,64.17
2023-05-03T01:30:40.793Z,62.90
2023-05-03T01:33:23.019Z,58.56
2023-05-03T01:36:12.155Z,62.83
2023-05-03T01:38:39.810Z,61.65
2023-05-03T01:41:11.215Z,63.17
2023-05-03T01:43:39.705Z,64.90
2023-05-03T01:46:07.632Z,62.01
2023-05-03T01:48:34.684Z,63.10
2023-05-03T01:51:02.711Z,56.12
2023-05-03T01:53:29.646Z,55.51
2023-05-03T01:55:56.620Z,55.26
2023-05-03T01:58:23.592Z,54.72
2023-05-03T02:00:50.606Z,54.76
2023-05-03T02:03:18.013Z,54.47
2023-05-03T02:05:46.404Z,55.18
2023-05-03T02:08:13.423Z,54.60
2023-05-03T02:10:40.507Z,56.66
2023-05-03T02:13:07.525Z,56.14
2023-05-03T02:15:34.642Z,55.32
2023-05-03T02:18:03.318Z,55.79
2023-05-03T02:20:35.512Z,55.32
2023-05-03T02:23:02.562Z,56.13
2023-05-03T02:25:29.894Z,55.58
2023-05-03T02:27:56.915Z,55.96
2023-05-03T02:30:24.703Z,55.04
2023-05-03T02:32:51.704Z,56.63
2023-05-03T02:35:19.751Z,55.37
2023-05-03T02:37:46.699Z,55.79
2023-05-03T02:40:14.116Z,56.25
2023-05-03T02:42:44.031Z,57.61
2023-05-03T02:45:11.521Z,55.47
2023-05-03T02:47:39.377Z,56.59
2023-05-03T02:50:07.402Z,56.49
2023-05-03T02:52:37.658Z,56.23
2023-05-03T02:55:05.815Z,58.42
2023-05-03T02:57:33.059Z,58.52
2023-05-03T03:00:00.316Z,60.14
2023-05-03T03:02:27.569Z,62.09
2023-05-03T03:04:55.029Z,62.10
2023-05-03T03:07:23.102Z,62.87
2023-05-03T03:09:53.580Z,61.36
2023-05-03T03:12:21.335Z,61.76
2023-05-03T03:14:48.418Z,62.35
2023-05-03T03:17:15.454Z,63.29
2023-05-03T03:19:42.394Z,63.22
2023-05-03T03:22:09.510Z,63.56
2023-05-03T03:24:36.973Z,67.29
2023-05-03T03:27:04.449Z,66.28
2023-05-03T03:29:33.267Z,65.58
2023-05-03T03:32:01.392Z,65.88
2023-05-03T03:34:28.398Z,65.79
2023-05-03T03:36:55.562Z,67.59
2023-05-03T03:39:22.625Z,67.63
2023-05-03T03:41:49.720Z,66.67
2023-05-03T03:44:16.827Z,67.66
2023-05-03T03:46:44.394Z,67.46
2023-05-03T03:49:11.775Z,67.50
2023-05-03T03:51:39.939Z,67.81
2023-05-03T03:54:07.003Z,68.49
2023-05-03T03:56:37.774Z,67.69
2023-05-03T03:59:05.266Z,67.53
2023-05-03T04:01:32.530Z,68.35
2023-05-03T04:03:59.624Z,70.50
2023-05-03T04:06:27.245Z,68.66
2023-05-03T04:08:56.114Z,71.87
2023-05-03T04:11:23.962Z,70.58
2023-05-03T04:13:55.838Z,73.35
2023-05-03T04:16:22.982Z,74.83
2023-05-03T04:18:50.290Z,73.79
2023-05-03T04:21:17.432Z,75.03
2023-05-03T04:23:44.612Z,75.52
2023-05-03T04:26:27.505Z,75.63
2023-05-03T04:28:59.944Z,75.16
2023-05-03T04:31:27.105Z,75.57
2023-05-03T04:33:55.374Z,76.81
2023-05-03T04:36:26.011Z,76.48
2023-05-03T04:38:54.700Z,75.79
2023-05-03T04:41:24.567Z,75.09
2023-05-03T04:43:52.397Z,74.87
2023-05-03T04:46:20.706Z,74.79
2023-05-03T04:48:48.456Z,75.89
2023-05-03T04:51:15.588Z,75.57
2023-05-03T04:53:43.844Z,72.87
2023-05-03T04:56:16.262Z,72.58
2023-05-03T04:58:44.706Z,73.95
2023-05-03T05:01:14.617Z,73.80
2023-05-03T05:03:41.904Z,74.40
2023-05-03T05:06:15.709Z,74.74
2023-05-03T05:08:42.881Z,74.90
2023-05-03T05:11:13.904Z,74.47
2023-05-03T05:13:41.020Z,74.73
2023-05-03T05:16:08.260Z,76.66
2023-05-03T05:18:36.358Z,78.11
2023-05-03T05:21:06.278Z,77.95
2023-05-03T05:23:35.359Z,76.49
2023-05-03T05:26:03.035Z,75.97
2023-05-03T05:28:37.740Z,76.55
2023-05-03T05:31:05.049Z,76.14
2023-05-03T05:33:32.447Z,79.63
2023-05-03T05:36:00.174Z,79.07
2023-05-03T05:38:28.047Z,77.65
2023-05-03T05:40:57.901Z,79.32
2023-05-03T05:43:25.166Z,79.33
2023-05-03T05:45:52.219Z,78.89
2023-05-03T05:48:20.439Z,80.49
2023-05-03T05:50:48.967Z,81.62
2023-05-03T05:53:16.296Z,80.25
2023-05-03T05:55:53.639Z,80.68
2023-05-03T05:58:21.125Z,82.20
2023-05-03T06:00:52.199Z,81.79
2023-05-03T06:03:19.331Z,78.50
2023-05-03T06:05:49.469Z,80.16
2023-05-03T06:08:16.434Z,81.14
2023-05-03T06:10:44.093Z,82.06
2023-05-03T06:13:11.418Z,81.81
2023-05-03T06:15:38.487Z,81.06
2023-05-03T06:18:05.638Z,81.68
2023-05-03T06:20:32.984Z,79.62
2023-05-03T06:23:00.356Z,79.16
2023-05-03T06:25:27.616Z,82.58
2023-05-03T06:27:54.720Z,79.47
2023-05-03T06:30:25.993Z,80.15
2023-05-03T06:32:53.644Z,81.52
2023-05-03T06:35:22.143Z,83.33
2023-05-03T06:37:50.148Z,83.32
2023-05-03T06:40:17.162Z,84.08
2023-05-03T06:42:45.404Z,85.61
2023-05-03T06:45:18.778Z,84.98
2023-05-03T06:47:46.259Z,83.08
2023-05-03T06:50:14.134Z,85.05
2023-05-03T06:52:41.711Z,82.49
2023-05-03T06:55:09.814Z,81.70
2023-05-03T06:57:36.912Z,84.53
2023-05-03T07:00:07.431Z,82.29
2023-05-03T07:02:34.981Z,80.75
2023-05-03T07:05:02.157Z,83.22
2023-05-03T07:07:29.584Z,77.47
2023-05-03T07:09:56.781Z,75.19
2023-05-03T07:12:27.835Z,73.57
2023-05-03T07:14:55.715Z,74.27
2023-05-03T07:17:23.417Z,72.92
2023-05-03T07:19:51.245Z,71.98
2023-05-03T07:22:21.473Z,73.44
2023-05-03T07:24:48.640Z,72.81
2023-05-03T07:27:15.730Z,72.94
2023-05-03T07:29:42.732Z,74.27
2023-05-03T07:32:09.942Z,74.68
2023-05-03T07:34:37.117Z,73.94
2023-05-03T07:37:04.243Z,74.05
2023-05-03T07:39:31.234Z,73.32
2023-05-03T07:41:58.363Z,72.71
2023-05-03T07:44:25.605Z,74.39
2023-05-03T07:46:52.608Z,74.62
2023-05-03T07:49:19.831Z,75.74
2023-05-03T07:51:46.819Z,74.30
2023-05-03T07:54:13.816Z,74.47
2023-05-03T07:56:41.748Z,74.07
2023-05-03T07:59:10.450Z,74.93
2023-05-03T08:01:38.352Z,74.32
2023-05-03T08:04:06.018Z,75.76
2023-05-03T08:06:35.730Z,73.83
2023-05-03T08:09:04.901Z,75.81
2023-05-03T08:11:32.070Z,73.79
2023-05-03T08:13:59.144Z,74.40
2023-05-03T08:16:26.356Z,74.62
2023-05-03T08:18:53.526Z,74.13
2023-05-03T08:21:22.270Z,75.06
2023-05-03T08:23:49.344Z,72.53
2023-05-03T08:26:16.418Z,72.54
2023-05-03T08:28:43.512Z,72.95
2023-05-03T08:31:10.659Z,73.15
2023-05-03T08:33:37.800Z,73.04
2023-05-03T08:36:05.290Z,74.79
2023-05-03T08:38:33.699Z,74.20
2023-05-03T08:41:18.785Z,74.15
2023-05-03T08:43:48.690Z,76.59
2023-05-03T08:46:16.260Z,78.57
2023-05-03T08:48:45.152Z,78.32
2023-05-03T08:51:12.550Z,81.90
2023-05-03T08:53:39.931Z,83.53
2023-05-03T08:56:08.619Z,85.80
2023-05-03T08:58:44.375Z,86.32
2023-05-03T09:01:11.526Z,79.11
2023-05-03T09:03:39.950Z,79.62
2023-05-03T09:06:21.084Z,80.86
2023-05-03T09:08:48.361Z,81.24
2023-05-03T09:11:26.861Z,77.44
2023-05-03T09:13:54.597Z,80.96
2023-05-03T09:16:42.717Z,76.46
2023-05-03T09:19:12.503Z,76.53
2023-05-03T09:21:41.330Z,76.79
2023-05-03T09:24:15.797Z,74.37
2023-05-03T09:26:44.095Z,70.93
2023-05-03T09:29:11.783Z,69.76
2023-05-03T09:31:59.654Z,71.36
2023-05-03T09:34:26.788Z,71.80
2023-05-03T09:36:54.091Z,72.52
2023-05-03T09:39:21.190Z,75.07
2023-05-03T09:41:48.209Z,77.74
2023-05-03T09:44:15.479Z,73.49
2023-05-03T09:47:03.034Z,74.01
2023-05-03T09:49:32.664Z,74.23
2023-05-03T09:52:01.396Z,74.75
2023-05-03T09:54:31.917Z,76.72
2023-05-03T09:57:02.525Z,77.59
2023-05-03T09:59:29.640Z,83.56
2023-05-03T10:02:01.720Z,86.71
2023-05-03T10:04:29.973Z,83.95
2023-05-03T10:07:01.492Z,78.37
2023-05-03T10:09:40.651Z,73.68
2023-05-03T10:12:17.619Z,73.38
2023-05-03T10:14:47.627Z,70.19
2023-05-03T10:17:46.126Z,70.15
2023-05-03T10:20:40.299Z,71.94
2023-05-03T10:23:12.993Z,71.42
2023-05-03T10:26:05.202Z,72.95
2023-05-03T10:28:33.801Z,73.27
2023-05-03T10:31:01.079Z,75.17
2023-05-03T10:33:33.967Z,78.51
2023-05-03T10:36:10.921Z,78.12
2023-05-03T10:38:38.304Z,78.51
2023-05-03T10:41:07.318Z,77.43
2023-05-03T10:43:34.477Z,75.20
2023-05-03T10:46:06.865Z,76.49
2023-05-03T10:48:35.066Z,77.72
2023-05-03T10:51:34.126Z,74.52
2023-05-03T10:54:01.188Z,74.31
2023-05-03T10:56:28.445Z,73.53
2023-05-03T10:58:57.306Z,72.11
2023-05-03T11:01:27.257Z,71.84
2023-05-03T11:04:22.163Z,71.37
2023-05-03T11:06:52.231Z,73.55
2023-05-03T11:09:19.407Z,73.72
2023-05-03T11:11:46.556Z,73.81
2023-05-03T11:14:14.157Z,73.70
2023-05-03T11:16:48.286Z,74.71
2023-05-03T11:19:16.168Z,76.89
2023-05-03T11:21:44.392Z,77.44
2023-05-03T11:24:17.474Z,75.72
2023-05-03T11:26:44.538Z,75.57
2023-05-03T11:29:13.245Z,75.24
2023-05-03T11:31:43.317Z,75.25
2023-05-03T11:34:12.520Z,75.53
2023-05-03T11:36:41.018Z,76.78
2023-05-03T11:39:09.006Z,76.42
2023-05-03T11:41:36.224Z,76.12
2023-05-03T11:44:16.067Z,76.99
2023-05-03T11:46:46.340Z,76.77
2023-05-03T11:49:18.866Z,79.16
2023-05-03T11:51:49.148Z,78.71
2023-05-03T11:54:27.278Z,78.74
2023-05-03T11:56:59.429Z,81.22
2023-05-03T11:59:40.177Z,79.18
2023-05-03T12:02:10.445Z,77.17
2023-05-03T12:04:43.239Z,78.76
2023-05-03T12:07:13.622Z,80.55
2023-05-03T12:09:43.942Z,77.93
2023-05-03T12:12:25.509Z,77.89
2023-05-03T12:14:59.556Z,77.06
2023-05-03T12:17:44.340Z,74.54
2023-05-03T12:22:58.082Z,71.06
2023-05-03T12:25:28.030Z,72.56
2023-05-03T12:30:33.596Z,72.25
2023-05-03T12:33:04.134Z,72.71
2023-05-03T12:35:34.241Z,74.04
2023-05-03T12:38:09.075Z,73.59
2023-05-03T12:40:36.837Z,72.87
2023-05-03T12:43:04.352Z,74.37
2023-05-03T12:45:34.563Z,72.86
2023-05-03T12:48:03.101Z,73.15
2023-05-03T12:50:31.944Z,74.60
2023-05-03T12:53:02.746Z,76.10
2023-05-03T12:55:35.468Z,76.89
2023-05-03T12:58:39.573Z,77.30
2023-05-03T13:05:52.876Z,74.47
2023-05-03T13:08:21.705Z,70.13
2023-05-03T13:10:53.207Z,71.85
2023-05-03T13:13:21.256Z,70.54
2023-05-03T13:15:49.681Z,71.34
2023-05-03T13:18:16.733Z,69.38
2023-05-03T13:20:44.145Z,72.04
2023-05-03T13:23:11.973Z,73.99
2023-05-03T13:25:40.517Z,71.61
2023-05-03T13:28:07.551Z,73.08
2023-05-03T13:30:34.745Z,72.25
2023-05-03T13:33:01.802Z,71.66
2023-05-03T13:35:28.805Z,73.79
2023-05-03T13:37:55.795Z,72.88
2023-05-03T13:40:24.808Z,72.14
2023-05-03T13:42:51.815Z,73.02
2023-05-03T13:45:19.892Z,71.97
2023-05-03T13:48:14.318Z,71.15
2023-05-03T13:50:34.513Z,72.16
2023-05-03T13:53:01.921Z,72.67
2023-05-03T13:55:28.855Z,71.96
2023-05-03T13:57:56.356Z,72.43
2023-05-03T14:00:23.537Z,74.98
2023-05-03T14:02:52.079Z,75.05
2023-05-03T14:05:20.003Z,73.44
2023-05-03T14:07:47.003Z,72.05
2023-05-03T14:10:16.925Z,73.60
2023-05-03T14:12:45.105Z,74.09
2023-05-03T14:15:12.296Z,73.01
2023-05-03T14:17:39.438Z,73.39
2023-05-03T14:20:08.632Z,71.57
2023-05-03T14:22:36.005Z,69.79
2023-05-03T14:25:03.048Z,71.56
2023-05-03T14:27:31.016Z,73.03
2023-05-03T14:29:58.062Z,71.02
2023-05-03T14:32:25.409Z,71.40
2023-05-03T14:34:52.752Z,70.93
2023-05-03T14:37:19.869Z,72.60
2023-05-03T14:39:47.035Z,73.63
2023-05-03T14:42:14.152Z,73.92
2023-05-03T14:44:41.368Z,73.12
2023-05-03T14:47:08.480Z,72.07
2023-05-03T14:49:40.626Z,72.15
2023-05-03T14:52:08.479Z,72.52
2023-05-03T14:54:36.710Z,69.93
2023-05-03T14:57:04.782Z,69.44
2023-05-03T14:59:33.476Z,72.30
2023-05-03T15:02:01.190Z,72.38
2023-05-03T15:04:29.348Z,69.95
2023-05-03T15:07:00.956Z,69.59
2023-05-03T15:09:28.527Z,70.70
2023-05-03T15:11:55.492Z,70.85
2023-05-03T15:14:22.579Z,69.65
2023-05-03T15:16:49.705Z,69.16
2023-05-03T15:19:16.788Z,70.59
2023-05-03T15:21:47.853Z,69.27
2023-05-03T15:24:16.641Z,69.70
2023-05-03T15:26:43.944Z,69.69
2023-05-03T15:29:11.266Z,68.66
2023-05-03T15:31:38.694Z,68.60
2023-05-03T15:34:06.621Z,69.14
2023-05-03T15:36:34.189Z,69.41
2023-05-03T15:39:01.192Z,70.17
2023-05-03T15:41:28.442Z,69.76
2023-05-03T15:43:56.225Z,69.89
2023-05-03T15:46:23.496Z,71.05
2023-05-03T15:48:55.129Z,71.39
2023-05-03T15:51:22.265Z,71.99
2023-05-03T15:53:49.896Z,71.47
2023-05-03T15:56:17.043Z,72.02
2023-05-03T15:58:44.116Z,71.64
2023-05-03T16:01:11.038Z,71.48
2023-05-03T16:03:38.113Z,71.90
2023-05-03T16:06:06.149Z,71.23
2023-05-03T16:08:33.132Z,71.72
2023-05-03T16:11:00.346Z,70.83
2023-05-03T16:13:27.958Z,69.23
2023-05-03T16:15:58.223Z,70.84
2023-05-03T16:18:27.039Z,71.14
2023-05-03T16:20:55.667Z,71.04
2023-05-03T16:23:22.653Z,71.49
2023-05-03T16:25:49.580Z,72.09
2023-05-03T16:28:19.216Z,71.54
2023-05-03T16:30:46.416Z,71.82
2023-05-03T16:33:13.461Z,72.25
2023-05-03T16:35:42.838Z,70.81
2023-05-03T16:38:10.059Z,72.13
2023-05-03T16:40:40.223Z,72.63
2023-05-03T16:43:08.001Z,73.37
2023-05-03T16:45:35.077Z,72.56
2023-05-03T16:48:04.785Z,74.54
2023-05-03T16:50:33.195Z,74.49
2023-05-03T16:53:00.291Z,77.30
2023-05-03T16:55:27.232Z,77.32
2023-05-03T16:57:54.129Z,77.80
2023-05-03T17:00:22.012Z,77.35
2023-05-03T17:02:49.316Z,77.35
2023-05-03T17:05:16.434Z,77.10
2023-05-03T17:07:43.418Z,77.25
2023-05-03T17:10:10.767Z,77.55
2023-05-03T17:12:37.749Z,77.71
2023-05-03T17:15:05.491Z,76.93
2023-05-03T17:17:32.920Z,76.48
2023-05-03T17:20:00.019Z,76.16
2023-05-03T17:22:26.984Z,77.01
2023-05-03T17:24:55.398Z,76.38
2023-05-03T17:27:24.417Z,76.49
2023-05-03T17:29:51.787Z,75.67
2023-05-03T17:32:18.749Z,75.38
2023-05-03T17:34:46.121Z,74.65
2023-05-03T17:37:13.170Z,73.98
2023-05-03T17:39:40.334Z,73.24
2023-05-03T17:42:08.246Z,74.60
2023-05-03T17:44:35.300Z,74.96
2023-05-03T17:47:02.467Z,74.91
2023-05-03T17:49:33.166Z,74.29
2023-05-03T17:52:00.687Z,74.56
2023-05-03T17:54:30.640Z,75.07
2023-05-03T17:56:57.771Z,75.41
2023-05-03T17:59:24.857Z,75.73
2023-05-03T18:01:52.210Z,75.58
2023-05-03T18:04:19.502Z,76.85
2023-05-03T18:06:46.726Z,75.99
2023-05-03T18:09:14.023Z,75.15
2023-05-03T18:11:41.580Z,75.83
2023-05-03T18:14:08.699Z,75.90
2023-05-03T18:16:36.891Z,75.21
2023-05-03T18:19:04.563Z,74.89
2023-05-03T18:21:31.687Z,75.56
2023-05-03T18:23:58.775Z,75.04
2023-05-03T18:26:25.799Z,75.25
2023-05-03T18:28:53.727Z,75.18
2023-05-03T18:31:21.642Z,75.70
2023-05-03T18:33:49.153Z,76.39
2023-05-03T18:36:17.761Z,76.22
2023-05-03T18:38:46.896Z,76.05
2023-05-03T18:41:16.089Z,75.86
2023-05-03T18:43:47.341Z,76.11
2023-05-03T18:46:19.044Z,76.47
2023-05-03T18:48:47.868Z,76.21
2023-05-03T18:51:15.103Z,76.48
2023-05-03T18:53:43.682Z,76.03
2023-05-03T18:56:11.070Z,76.34
2023-05-03T18:58:38.382Z,76.28
2023-05-03T19:01:06.070Z,76.35
2023-05-03T19:03:33.560Z,75.60
2023-05-03T19:06:04.845Z,75.62
2023-05-03T19:08:32.302Z,75.61
2023-05-03T19:11:14.392Z,76.00
2023-05-03T19:13:42.723Z,75.48
2023-05-03T19:16:09.838Z,74.26
2023-05-03T19:18:44.543Z,74.30
2023-05-03T19:21:19.371Z,75.33
2023-05-03T19:23:46.486Z,77.09
2023-05-03T19:26:13.608Z,76.84
2023-05-03T19:28:40.588Z,76.92
2023-05-03T19:31:10.888Z,76.75
2023-05-03T19:33:38.242Z,76.31
2023-05-03T19:36:08.534Z,75.98
2023-05-03T19:38:36.578Z,76.17
2023-05-03T19:41:09.803Z,76.42
2023-05-03T19:43:36.899Z,77.46
2023-05-03T19:46:04.090Z,76.98
2023-05-03T19:48:31.203Z,76.48
2023-05-03T19:51:01.486Z,76.50
2023-05-03T19:53:28.910Z,76.23
2023-05-03T19:56:00.654Z,73.86
2023-05-03T19:58:28.391Z,75.29
2023-05-03T20:00:57.898Z,76.09
2023-05-03T20:03:24.927Z,75.70
2023-05-03T20:05:52.206Z,76.69
2023-05-03T20:08:19.741Z,78.08
2023-05-03T20:10:47.044Z,77.62
2023-05-03T20:13:14.155Z,77.34
2023-05-03T20:15:41.800Z,75.94
2023-05-03T20:18:08.783Z,76.42
2023-05-03T20:20:36.786Z,76.97
2023-05-03T20:23:07.947Z,76.72
2023-05-03T20:25:34.885Z,76.51
2023-05-03T20:28:01.849Z,76.07
2023-05-03T20:30:31.393Z,75.33
2023-05-03T20:32:59.259Z,75.13
2023-05-03T20:35:27.275Z,74.63
2023-05-03T20:37:54.296Z,75.94
2023-05-03T20:40:21.368Z,75.79
2023-05-03T20:42:48.454Z,75.58
2023-05-03T20:45:15.749Z,75.20
2023-05-03T20:47:42.781Z,75.83
2023-05-03T20:50:09.999Z,76.44
2023-05-03T20:52:37.074Z,76.78
2023-05-03T20:55:04.176Z,77.23
2023-05-03T20:57:31.571Z,77.57
2023-05-03T20:59:59.451Z,77.46
2023-05-03T21:02:26.555Z,77.27
2023-05-03T21:04:53.685Z,76.07
2023-05-03T21:07:20.800Z,75.30
2023-05-03T21:09:47.866Z,75.52
2023-05-03T21:12:14.834Z,75.41
2023-05-03T21:14:41.766Z,75.57
2023-05-03T21:17:09.982Z,75.56
2023-05-03T21:19:36.852Z,74.36
2023-05-03T21:22:03.978Z,74.52
2023-05-03T21:24:31.318Z,74.10
2023-05-03T21:26:58.978Z,74.34
2023-05-03T21:29:25.981Z,75.62
2023-05-03T21:31:53.217Z,76.16
2023-05-03T21:34:20.297Z,76.72
2023-05-03T21:36:47.287Z,76.79
2023-05-03T21:39:14.306Z,77.21
2023-05-03T21:41:41.349Z,76.93
2023-05-03T21:44:08.319Z,77.34
2023-05-03T21:46:36.315Z,77.20
2023-05-03T21:49:03.648Z,75.97
2023-05-03T21:51:32.537Z,76.53
2023-05-03T21:53:59.551Z,76.90
2023-05-03T21:56:26.854Z,77.56
2023-05-03T21:58:54.300Z,77.75
2023-05-03T22:01:21.951Z,77.40
2023-05-03T22:03:53.134Z,77.27
2023-05-03T22:06:20.330Z,76.89
2023-05-03T22:08:47.875Z,76.52
2023-05-03T22:11:14.960Z,76.34
2023-05-03T22:14:02.977Z,76.93
2023-05-03T22:16:33.231Z,76.83
2023-05-03T22:19:00.420Z,77.15
2023-05-03T22:21:27.615Z,77.29
2023-05-03T22:23:54.556Z,77.20
2023-05-03T22:26:21.622Z,77.08
2023-05-03T22:28:50.459Z,76.83
2023-05-03T22:31:18.171Z,76.70
2023-05-03T22:33:45.664Z,77.03
2023-05-03T22:36:13.204Z,76.79
2023-05-03T22:38:42.725Z,76.00
2023-05-03T22:41:11.845Z,76.00
2023-05-03T22:43:38.869Z,76.93
2023-05-03T22:46:06.287Z,75.96
2023-05-03T22:48:34.222Z,76.73
2023-05-03T22:51:01.182Z,74.99
2023-05-03T22:53:28.512Z,75.19
2023-05-03T22:55:59.188Z,74.77
2023-05-03T22:58:26.320Z,76.21
2023-05-03T23:00:53.789Z,75.79
2023-05-03T23:03:22.151Z,76.75
2023-05-03T23:05:51.528Z,77.58
2023-05-03T23:08:19.000Z,77.42
2023-05-03T23:10:45.955Z,77.31
2023-05-03T23:13:13.513Z,77.42
2023-05-03T23:15:44.813Z,77.45
2023-05-03T23:18:11.765Z,77.49
2023-05-03T23:20:38.650Z,77.90
2023-05-03T23:23:05.755Z,77.41
2023-05-03T23:25:32.806Z,77.80
2023-05-03T23:27:59.706Z,77.67
2023-05-03T23:30:27.269Z,78.42
2023-05-03T23:32:54.770Z,79.61
2023-05-03T23:35:22.181Z,79.63
2023-05-03T23:37:49.201Z,78.67
2023-05-03T23:40:16.313Z,78.75
2023-05-03T23:42:43.876Z,78.93
2023-05-03T23:45:11.336Z,78.75
2023-05-03T23:47:38.371Z,79.20
2023-05-03T23:50:06.280Z,79.75
2023-05-03T23:52:33.441Z,79.93
2023-05-03T23:55:00.469Z,80.39
2023-05-03T23:57:27.417Z,79.64
2023-05-03T23:59:54.470Z,79.25
